sensor_id;sensor_type;location;lat;lon;timestamp;temperature;humidity
1716;DHT22;855;48.824;9.220;2023-07-31T00:01:45;19.30;74.60
1716;DHT22;855;48.824;9.220;2023-07-31T00:06:48;19.30;75.60
1716;DHT22;855;48.824;9.220;2023-07-31T00:09:14;19.30;75.80
1716;DHT22;855;48.824;9.220;2023-07-31T00:11:41;19.30;75.30
1716;DHT22;855;48.824;9.220;2023-07-31T00:14:08;19.30;75.50
1716;DHT22;855;48.824;9.220;2023-07-31T00:16:36;19.30;75.90
1716;DHT22;855;48.824;9.220;2023-07-31T00:21:35;19.20;75.90
1716;DHT22;855;48.824;9.220;2023-07-31T00:24:02;19.20;76.40
1716;DHT22;855;48.824;9.220;2023-07-31T00:29:04;19.20;76.30
1716;DHT22;855;48.824;9.220;2023-07-31T00:31:30;19.10;76.70
1716;DHT22;855;48.824;9.220;2023-07-31T00:33:59;19.10;76.80
1716;DHT22;855;48.824;9.220;2023-07-31T00:36:25;19.10;76.60
1716;DHT22;855;48.824;9.220;2023-07-31T00:38:52;19.00;77.00
1716;DHT22;855;48.824;9.220;2023-07-31T00:41:19;19.00;76.30
1716;DHT22;855;48.824;9.220;2023-07-31T00:43:46;19.00;76.40
1716;DHT22;855;48.824;9.220;2023-07-31T00:46:13;18.90;76.80
1716;DHT22;855;48.824;9.220;2023-07-31T00:48:40;18.90;76.70
1716;DHT22;855;48.824;9.220;2023-07-31T00:53:44;19.00;77.10
1716;DHT22;855;48.824;9.220;2023-07-31T00:56:12;19.00;77.10
1716;DHT22;855;48.824;9.220;2023-07-31T00:58:39;19.00;76.70
1716;DHT22;855;48.824;9.220;2023-07-31T01:01:06;18.90;77.40
1716;DHT22;855;48.824;9.220;2023-07-31T01:03:33;18.80;77.50
1716;DHT22;855;48.824;9.220;2023-07-31T01:06:09;18.80;78.00
1716;DHT22;855;48.824;9.220;2023-07-31T01:08:52;18.80;78.40
1716;DHT22;855;48.824;9.220;2023-07-31T01:11:27;18.70;77.90
1716;DHT22;855;48.824;9.220;2023-07-31T01:13:55;18.70;78.20
1716;DHT22;855;48.824;9.220;2023-07-31T01:16:22;18.70;78.20
1716;DHT22;855;48.824;9.220;2023-07-31T01:18:49;18.70;78.40
1716;DHT22;855;48.824;9.220;2023-07-31T01:21:32;18.60;78.20
1716;DHT22;855;48.824;9.220;2023-07-31T01:24:21;18.60;78.30
1716;DHT22;855;48.824;9.220;2023-07-31T01:26:57;18.60;78.40
1716;DHT22;855;48.824;9.220;2023-07-31T01:29:32;18.60;78.20
1716;DHT22;855;48.824;9.220;2023-07-31T01:32:01;18.50;78.80
1716;DHT22;855;48.824;9.220;2023-07-31T01:34:29;18.50;79.30
1716;DHT22;855;48.824;9.220;2023-07-31T01:36:56;18.40;79.50
1716;DHT22;855;48.824;9.220;2023-07-31T01:39:23;18.40;79.90
1716;DHT22;855;48.824;9.220;2023-07-31T01:41:49;18.30;79.00
1716;DHT22;855;48.824;9.220;2023-07-31T01:46:53;18.20;79.50
1716;DHT22;855;48.824;9.220;2023-07-31T01:49:20;18.10;79.90
1716;DHT22;855;48.824;9.220;2023-07-31T01:51:47;18.20;80.40
1716;DHT22;855;48.824;9.220;2023-07-31T01:56:44;18.10;79.90
1716;DHT22;855;48.824;9.220;2023-07-31T01:59:11;18.10;80.10
1716;DHT22;855;48.824;9.220;2023-07-31T02:01:38;18.10;80.10
1716;DHT22;855;48.824;9.220;2023-07-31T02:04:06;18.00;80.10
1716;DHT22;855;48.824;9.220;2023-07-31T02:06:33;18.00;80.30
1716;DHT22;855;48.824;9.220;2023-07-31T02:09:03;18.00;80.50
1716;DHT22;855;48.824;9.220;2023-07-31T02:11:30;18.00;80.80
1716;DHT22;855;48.824;9.220;2023-07-31T02:13:57;18.00;80.50
1716;DHT22;855;48.824;9.220;2023-07-31T02:16:23;18.00;80.50
1716;DHT22;855;48.824;9.220;2023-07-31T02:18:50;17.90;80.70
1716;DHT22;855;48.824;9.220;2023-07-31T02:23:54;17.90;81.20
1716;DHT22;855;48.824;9.220;2023-07-31T02:26:23;17.90;81.10
1716;DHT22;855;48.824;9.220;2023-07-31T02:28:50;17.90;81.50
1716;DHT22;855;48.824;9.220;2023-07-31T02:31:17;18.00;81.10
1716;DHT22;855;48.824;9.220;2023-07-31T02:33:43;18.00;80.80
1716;DHT22;855;48.824;9.220;2023-07-31T02:36:10;18.00;80.90
1716;DHT22;855;48.824;9.220;2023-07-31T02:38:37;17.90;80.90
1716;DHT22;855;48.824;9.220;2023-07-31T02:41:05;17.80;81.30
1716;DHT22;855;48.824;9.220;2023-07-31T02:43:32;17.70;81.60
1716;DHT22;855;48.824;9.220;2023-07-31T02:45:59;17.80;81.90
1716;DHT22;855;48.824;9.220;2023-07-31T02:48:26;17.80;81.70
1716;DHT22;855;48.824;9.220;2023-07-31T02:50:53;17.70;81.50
1716;DHT22;855;48.824;9.220;2023-07-31T02:53:20;17.70;82.00
1716;DHT22;855;48.824;9.220;2023-07-31T02:55:48;17.70;81.60
1716;DHT22;855;48.824;9.220;2023-07-31T02:58:16;17.70;81.60
1716;DHT22;855;48.824;9.220;2023-07-31T03:00:43;17.70;81.60
1716;DHT22;855;48.824;9.220;2023-07-31T03:03:10;17.70;81.60
1716;DHT22;855;48.824;9.220;2023-07-31T03:05:37;17.70;81.50
1716;DHT22;855;48.824;9.220;2023-07-31T03:08:04;17.70;81.10
1716;DHT22;855;48.824;9.220;2023-07-31T03:10:31;17.70;81.50
1716;DHT22;855;48.824;9.220;2023-07-31T03:12:58;17.70;81.10
1716;DHT22;855;48.824;9.220;2023-07-31T03:15:26;17.70;81.20
1716;DHT22;855;48.824;9.220;2023-07-31T03:17:52;17.70;81.30
1716;DHT22;855;48.824;9.220;2023-07-31T03:20:19;17.80;81.30
1716;DHT22;855;48.824;9.220;2023-07-31T03:22:48;17.80;81.30
1716;DHT22;855;48.824;9.220;2023-07-31T03:25:15;17.90;81.20
1716;DHT22;855;48.824;9.220;2023-07-31T03:27:42;17.90;80.80
1716;DHT22;855;48.824;9.220;2023-07-31T03:30:12;17.90;80.30
1716;DHT22;855;48.824;9.220;2023-07-31T03:35:15;17.90;80.30
1716;DHT22;855;48.824;9.220;2023-07-31T03:40:10;17.80;80.30
1716;DHT22;855;48.824;9.220;2023-07-31T03:42:37;17.90;80.00
1716;DHT22;855;48.824;9.220;2023-07-31T03:45:06;17.90;80.40
1716;DHT22;855;48.824;9.220;2023-07-31T03:47:33;17.90;80.10
1716;DHT22;855;48.824;9.220;2023-07-31T03:50:00;17.90;80.00
1716;DHT22;855;48.824;9.220;2023-07-31T03:52:28;17.90;79.70
1716;DHT22;855;48.824;9.220;2023-07-31T03:54:54;17.80;80.00
1716;DHT22;855;48.824;9.220;2023-07-31T03:57:20;17.70;80.10
1716;DHT22;855;48.824;9.220;2023-07-31T03:59:47;17.70;80.90
1716;DHT22;855;48.824;9.220;2023-07-31T04:02:14;17.60;80.50
1716;DHT22;855;48.824;9.220;2023-07-31T04:04:41;17.70;80.50
1716;DHT22;855;48.824;9.220;2023-07-31T04:07:08;17.70;80.50
1716;DHT22;855;48.824;9.220;2023-07-31T04:09:36;17.70;80.30
1716;DHT22;855;48.824;9.220;2023-07-31T04:12:03;17.70;80.50
1716;DHT22;855;48.824;9.220;2023-07-31T04:14:30;17.60;80.30
1716;DHT22;855;48.824;9.220;2023-07-31T04:16:57;17.70;80.00
1716;DHT22;855;48.824;9.220;2023-07-31T04:19:25;17.60;79.90
1716;DHT22;855;48.824;9.220;2023-07-31T04:21:52;17.60;80.00
1716;DHT22;855;48.824;9.220;2023-07-31T04:24:18;17.70;79.90
1716;DHT22;855;48.824;9.220;2023-07-31T04:26:51;17.70;79.70
1716;DHT22;855;48.824;9.220;2023-07-31T04:29:18;17.80;79.60
1716;DHT22;855;48.824;9.220;2023-07-31T04:31:45;18.00;79.20
1716;DHT22;855;48.824;9.220;2023-07-31T04:34:12;17.90;78.80
1716;DHT22;855;48.824;9.220;2023-07-31T04:36:38;18.00;78.40
1716;DHT22;855;48.824;9.220;2023-07-31T04:39:05;17.90;79.20
1716;DHT22;855;48.824;9.220;2023-07-31T04:41:32;18.00;78.60
1716;DHT22;855;48.824;9.220;2023-07-31T04:44:01;18.20;78.40
1716;DHT22;855;48.824;9.220;2023-07-31T04:46:29;18.30;77.90
1716;DHT22;855;48.824;9.220;2023-07-31T04:48:56;18.40;77.80
1716;DHT22;855;48.824;9.220;2023-07-31T04:51:23;18.40;76.60
1716;DHT22;855;48.824;9.220;2023-07-31T04:53:50;18.50;77.00
1716;DHT22;855;48.824;9.220;2023-07-31T04:56:17;18.60;76.70
1716;DHT22;855;48.824;9.220;2023-07-31T04:58:44;18.60;76.20
1716;DHT22;855;48.824;9.220;2023-07-31T05:01:12;18.80;76.00
1716;DHT22;855;48.824;9.220;2023-07-31T05:03:39;18.80;75.60
1716;DHT22;855;48.824;9.220;2023-07-31T05:06:06;18.90;75.90
1716;DHT22;855;48.824;9.220;2023-07-31T05:08:33;19.20;75.50
1716;DHT22;855;48.824;9.220;2023-07-31T05:11:00;19.20;75.30
1716;DHT22;855;48.824;9.220;2023-07-31T05:13:26;19.30;75.10
1716;DHT22;855;48.824;9.220;2023-07-31T05:15:53;19.20;74.70
1716;DHT22;855;48.824;9.220;2023-07-31T05:18:21;19.30;75.40
1716;DHT22;855;48.824;9.220;2023-07-31T05:20:48;19.30;75.40
1716;DHT22;855;48.824;9.220;2023-07-31T05:23:15;19.20;75.40
1716;DHT22;855;48.824;9.220;2023-07-31T05:25:42;19.20;75.10
1716;DHT22;855;48.824;9.220;2023-07-31T05:28:09;19.30;75.40
1716;DHT22;855;48.824;9.220;2023-07-31T05:30:36;19.30;74.90
1716;DHT22;855;48.824;9.220;2023-07-31T05:33:03;19.30;74.90
1716;DHT22;855;48.824;9.220;2023-07-31T05:35:31;19.50;74.30
1716;DHT22;855;48.824;9.220;2023-07-31T05:37:57;19.70;74.90
1716;DHT22;855;48.824;9.220;2023-07-31T05:40:24;19.90;74.10
1716;DHT22;855;48.824;9.220;2023-07-31T05:42:51;20.10;73.80
1716;DHT22;855;48.824;9.220;2023-07-31T05:45:18;20.30;73.40
1716;DHT22;855;48.824;9.220;2023-07-31T05:47:45;20.40;71.60
1716;DHT22;855;48.824;9.220;2023-07-31T05:50:12;20.50;71.00
1716;DHT22;855;48.824;9.220;2023-07-31T05:52:41;20.50;70.80
1716;DHT22;855;48.824;9.220;2023-07-31T05:55:08;20.60;70.10
1716;DHT22;855;48.824;9.220;2023-07-31T05:57:35;20.60;70.80
1716;DHT22;855;48.824;9.220;2023-07-31T06:00:02;20.60;70.20
1716;DHT22;855;48.824;9.220;2023-07-31T06:02:29;20.60;70.40
1716;DHT22;855;48.824;9.220;2023-07-31T06:04:58;20.60;70.60
1716;DHT22;855;48.824;9.220;2023-07-31T06:07:26;20.70;70.80
1716;DHT22;855;48.824;9.220;2023-07-31T06:09:54;20.70;70.10
1716;DHT22;855;48.824;9.220;2023-07-31T06:12:28;20.70;70.10
1716;DHT22;855;48.824;9.220;2023-07-31T06:14:55;20.80;70.40
1716;DHT22;855;48.824;9.220;2023-07-31T06:17:22;20.90;70.00
1716;DHT22;855;48.824;9.220;2023-07-31T06:19:49;21.10;70.50
1716;DHT22;855;48.824;9.220;2023-07-31T06:22:16;21.30;69.40
1716;DHT22;855;48.824;9.220;2023-07-31T06:24:42;21.60;68.40
1716;DHT22;855;48.824;9.220;2023-07-31T06:27:11;21.90;66.90
1716;DHT22;855;48.824;9.220;2023-07-31T06:29:38;22.10;65.90
1716;DHT22;855;48.824;9.220;2023-07-31T06:32:05;22.30;64.80
1716;DHT22;855;48.824;9.220;2023-07-31T06:34:32;22.10;63.20
1716;DHT22;855;48.824;9.220;2023-07-31T06:36:59;22.10;62.80
1716;DHT22;855;48.824;9.220;2023-07-31T06:39:26;22.30;62.60
1716;DHT22;855;48.824;9.220;2023-07-31T06:41:53;22.20;61.90
1716;DHT22;855;48.824;9.220;2023-07-31T06:44:23;22.30;62.80
1716;DHT22;855;48.824;9.220;2023-07-31T06:46:50;22.40;61.90
1716;DHT22;855;48.824;9.220;2023-07-31T06:49:17;22.40;62.30
1716;DHT22;855;48.824;9.220;2023-07-31T06:51:44;22.50;62.00
1716;DHT22;855;48.824;9.220;2023-07-31T06:54:11;22.40;63.20
1716;DHT22;855;48.824;9.220;2023-07-31T06:56:40;22.50;62.70
1716;DHT22;855;48.824;9.220;2023-07-31T06:59:07;22.70;62.80
1716;DHT22;855;48.824;9.220;2023-07-31T07:01:35;22.90;61.00
1716;DHT22;855;48.824;9.220;2023-07-31T07:04:02;22.80;60.30
1716;DHT22;855;48.824;9.220;2023-07-31T07:06:29;22.80;60.70
1716;DHT22;855;48.824;9.220;2023-07-31T07:08:56;22.70;60.20
1716;DHT22;855;48.824;9.220;2023-07-31T07:11:23;22.80;61.20
1716;DHT22;855;48.824;9.220;2023-07-31T07:13:50;23.20;60.30
1716;DHT22;855;48.824;9.220;2023-07-31T07:16:16;23.20;60.00
1716;DHT22;855;48.824;9.220;2023-07-31T07:18:44;23.20;58.90
1716;DHT22;855;48.824;9.220;2023-07-31T07:21:11;23.30;59.00
1716;DHT22;855;48.824;9.220;2023-07-31T07:23:41;23.40;59.50
1716;DHT22;855;48.824;9.220;2023-07-31T07:26:07;23.30;58.40
1716;DHT22;855;48.824;9.220;2023-07-31T07:28:34;23.30;59.90
1716;DHT22;855;48.824;9.220;2023-07-31T07:31:02;23.40;59.50
1716;DHT22;855;48.824;9.220;2023-07-31T07:33:29;23.50;59.20
1716;DHT22;855;48.824;9.220;2023-07-31T07:36:01;23.70;58.90
1716;DHT22;855;48.824;9.220;2023-07-31T07:38:28;23.60;57.80
1716;DHT22;855;48.824;9.220;2023-07-31T07:40:55;23.70;59.40
1716;DHT22;855;48.824;9.220;2023-07-31T07:43:21;23.70;58.00
1716;DHT22;855;48.824;9.220;2023-07-31T07:45:48;23.50;59.70
1716;DHT22;855;48.824;9.220;2023-07-31T07:48:16;23.50;60.00
1716;DHT22;855;48.824;9.220;2023-07-31T07:50:43;23.60;59.40
1716;DHT22;855;48.824;9.220;2023-07-31T07:53:11;23.60;58.00
1716;DHT22;855;48.824;9.220;2023-07-31T07:55:39;23.70;59.00
1716;DHT22;855;48.824;9.220;2023-07-31T07:58:06;23.90;58.40
1716;DHT22;855;48.824;9.220;2023-07-31T08:00:32;24.10;59.00
1716;DHT22;855;48.824;9.220;2023-07-31T08:02:59;24.30;58.30
1716;DHT22;855;48.824;9.220;2023-07-31T08:05:26;24.50;57.80
1716;DHT22;855;48.824;9.220;2023-07-31T08:07:53;24.60;57.70
1716;DHT22;855;48.824;9.220;2023-07-31T08:10:21;24.70;57.20
1716;DHT22;855;48.824;9.220;2023-07-31T08:12:48;24.70;56.70
1716;DHT22;855;48.824;9.220;2023-07-31T08:15:15;24.90;55.40
1716;DHT22;855;48.824;9.220;2023-07-31T08:17:41;25.00;55.30
1716;DHT22;855;48.824;9.220;2023-07-31T08:20:09;25.00;55.00
1716;DHT22;855;48.824;9.220;2023-07-31T08:22:36;24.90;55.20
1716;DHT22;855;48.824;9.220;2023-07-31T08:25:06;24.90;55.50
1716;DHT22;855;48.824;9.220;2023-07-31T08:27:35;24.90;56.30
1716;DHT22;855;48.824;9.220;2023-07-31T08:30:01;24.80;55.30
1716;DHT22;855;48.824;9.220;2023-07-31T08:32:28;25.00;55.80
1716;DHT22;855;48.824;9.220;2023-07-31T08:34:55;25.00;54.50
1716;DHT22;855;48.824;9.220;2023-07-31T08:37:22;24.80;55.20
1716;DHT22;855;48.824;9.220;2023-07-31T08:39:48;24.90;56.40
1716;DHT22;855;48.824;9.220;2023-07-31T08:42:15;24.90;53.80
1716;DHT22;855;48.824;9.220;2023-07-31T08:44:43;24.90;56.00
1716;DHT22;855;48.824;9.220;2023-07-31T08:47:11;25.00;55.40
1716;DHT22;855;48.824;9.220;2023-07-31T08:49:38;24.90;53.70
1716;DHT22;855;48.824;9.220;2023-07-31T08:52:07;24.80;56.00
1716;DHT22;855;48.824;9.220;2023-07-31T08:54:34;24.90;56.30
1716;DHT22;855;48.824;9.220;2023-07-31T08:57:00;24.90;55.80
1716;DHT22;855;48.824;9.220;2023-07-31T08:59:29;24.90;54.00
1716;DHT22;855;48.824;9.220;2023-07-31T09:02:02;24.90;55.40
1716;DHT22;855;48.824;9.220;2023-07-31T09:04:31;25.10;54.90
1716;DHT22;855;48.824;9.220;2023-07-31T09:07:00;25.20;54.80
1716;DHT22;855;48.824;9.220;2023-07-31T09:09:28;25.20;53.60
1716;DHT22;855;48.824;9.220;2023-07-31T09:11:56;25.20;54.50
1716;DHT22;855;48.824;9.220;2023-07-31T09:14:24;25.10;53.60
1716;DHT22;855;48.824;9.220;2023-07-31T09:16:52;25.00;55.40
1716;DHT22;855;48.824;9.220;2023-07-31T09:19:28;24.90;53.60
1716;DHT22;855;48.824;9.220;2023-07-31T09:21:55;24.80;54.50
1716;DHT22;855;48.824;9.220;2023-07-31T09:24:28;24.90;54.30
1716;DHT22;855;48.824;9.220;2023-07-31T09:26:56;25.10;55.50
1716;DHT22;855;48.824;9.220;2023-07-31T09:29:24;25.00;54.80
1716;DHT22;855;48.824;9.220;2023-07-31T09:31:52;24.90;54.00
1716;DHT22;855;48.824;9.220;2023-07-31T09:34:19;24.90;54.90
1716;DHT22;855;48.824;9.220;2023-07-31T09:36:50;24.90;55.20
1716;DHT22;855;48.824;9.220;2023-07-31T09:39:19;24.90;54.90
1716;DHT22;855;48.824;9.220;2023-07-31T09:41:53;25.00;55.20
1716;DHT22;855;48.824;9.220;2023-07-31T09:44:20;25.10;56.20
1716;DHT22;855;48.824;9.220;2023-07-31T09:46:46;25.00;55.70
1716;DHT22;855;48.824;9.220;2023-07-31T09:49:14;24.90;56.90
1716;DHT22;855;48.824;9.220;2023-07-31T09:51:43;24.90;56.40
1716;DHT22;855;48.824;9.220;2023-07-31T09:54:12;24.70;56.80
1716;DHT22;855;48.824;9.220;2023-07-31T09:56:42;24.60;57.50
1716;DHT22;855;48.824;9.220;2023-07-31T09:59:11;24.60;57.20
1716;DHT22;855;48.824;9.220;2023-07-31T10:01:39;24.60;57.40
1716;DHT22;855;48.824;9.220;2023-07-31T10:04:08;24.80;58.90
1716;DHT22;855;48.824;9.220;2023-07-31T10:06:36;25.00;56.80
1716;DHT22;855;48.824;9.220;2023-07-31T10:09:06;25.00;55.30
1716;DHT22;855;48.824;9.220;2023-07-31T10:11:41;25.10;57.20
1716;DHT22;855;48.824;9.220;2023-07-31T10:14:09;25.00;56.80
1716;DHT22;855;48.824;9.220;2023-07-31T10:16:38;25.00;56.20
1716;DHT22;855;48.824;9.220;2023-07-31T10:19:06;25.10;54.70
1716;DHT22;855;48.824;9.220;2023-07-31T10:21:34;25.40;53.60
1716;DHT22;855;48.824;9.220;2023-07-31T10:24:03;25.40;54.30
1716;DHT22;855;48.824;9.220;2023-07-31T10:26:31;25.20;55.00
1716;DHT22;855;48.824;9.220;2023-07-31T10:29:00;25.10;54.70
1716;DHT22;855;48.824;9.220;2023-07-31T10:31:27;25.30;54.50
1716;DHT22;855;48.824;9.220;2023-07-31T10:33:55;25.30;54.70
1716;DHT22;855;48.824;9.220;2023-07-31T10:36:22;25.30;55.30
1716;DHT22;855;48.824;9.220;2023-07-31T10:38:49;25.30;55.00
1716;DHT22;855;48.824;9.220;2023-07-31T10:41:17;25.40;54.90
1716;DHT22;855;48.824;9.220;2023-07-31T10:43:45;25.30;55.90
1716;DHT22;855;48.824;9.220;2023-07-31T10:46:14;25.10;55.80
1716;DHT22;855;48.824;9.220;2023-07-31T10:48:44;25.20;58.20
1716;DHT22;855;48.824;9.220;2023-07-31T10:51:11;25.20;54.40
1716;DHT22;855;48.824;9.220;2023-07-31T10:53:39;25.20;54.70
1716;DHT22;855;48.824;9.220;2023-07-31T10:56:08;25.30;55.40
1716;DHT22;855;48.824;9.220;2023-07-31T10:58:36;25.40;54.70
1716;DHT22;855;48.824;9.220;2023-07-31T11:01:04;25.40;54.50
1716;DHT22;855;48.824;9.220;2023-07-31T11:03:43;25.70;54.00
1716;DHT22;855;48.824;9.220;2023-07-31T11:06:11;26.00;53.10
1716;DHT22;855;48.824;9.220;2023-07-31T11:08:42;26.30;51.70
1716;DHT22;855;48.824;9.220;2023-07-31T11:11:11;26.50;52.20
1716;DHT22;855;48.824;9.220;2023-07-31T11:13:43;26.50;50.30
1716;DHT22;855;48.824;9.220;2023-07-31T11:16:12;26.40;52.10
1716;DHT22;855;48.824;9.220;2023-07-31T11:18:40;26.40;50.70
1716;DHT22;855;48.824;9.220;2023-07-31T11:21:12;26.50;51.20
1716;DHT22;855;48.824;9.220;2023-07-31T11:23:39;26.50;49.90
1716;DHT22;855;48.824;9.220;2023-07-31T11:26:06;26.40;52.60
1716;DHT22;855;48.824;9.220;2023-07-31T11:28:34;26.60;51.80
1716;DHT22;855;48.824;9.220;2023-07-31T11:31:01;26.60;51.30
1716;DHT22;855;48.824;9.220;2023-07-31T11:33:28;26.40;50.90
1716;DHT22;855;48.824;9.220;2023-07-31T11:35:55;26.40;51.90
1716;DHT22;855;48.824;9.220;2023-07-31T11:38:25;26.40;52.10
1716;DHT22;855;48.824;9.220;2023-07-31T11:40:52;26.50;51.10
1716;DHT22;855;48.824;9.220;2023-07-31T11:43:23;26.30;51.20
1716;DHT22;855;48.824;9.220;2023-07-31T11:45:51;26.50;52.20
1716;DHT22;855;48.824;9.220;2023-07-31T11:48:19;26.50;51.20
1716;DHT22;855;48.824;9.220;2023-07-31T11:50:48;26.30;52.60
1716;DHT22;855;48.824;9.220;2023-07-31T11:53:17;26.20;52.40
1716;DHT22;855;48.824;9.220;2023-07-31T11:55:46;26.10;51.60
1716;DHT22;855;48.824;9.220;2023-07-31T11:58:15;26.20;52.30
1716;DHT22;855;48.824;9.220;2023-07-31T12:00:43;26.30;53.90
1716;DHT22;855;48.824;9.220;2023-07-31T12:03:10;26.40;54.00
1716;DHT22;855;48.824;9.220;2023-07-31T12:05:37;26.40;53.10
1716;DHT22;855;48.824;9.220;2023-07-31T12:08:09;26.40;52.70
1716;DHT22;855;48.824;9.220;2023-07-31T12:10:37;26.60;53.90
1716;DHT22;855;48.824;9.220;2023-07-31T12:13:08;26.60;52.20
1716;DHT22;855;48.824;9.220;2023-07-31T12:15:40;26.50;53.20
1716;DHT22;855;48.824;9.220;2023-07-31T12:18:09;26.60;53.10
1716;DHT22;855;48.824;9.220;2023-07-31T12:20:44;26.50;51.70
1716;DHT22;855;48.824;9.220;2023-07-31T12:23:14;26.20;52.40
1716;DHT22;855;48.824;9.220;2023-07-31T12:25:41;26.20;52.60
1716;DHT22;855;48.824;9.220;2023-07-31T12:28:10;26.10;51.70
1716;DHT22;855;48.824;9.220;2023-07-31T12:30:40;26.00;53.20
1716;DHT22;855;48.824;9.220;2023-07-31T12:33:12;26.20;52.60
1716;DHT22;855;48.824;9.220;2023-07-31T12:35:43;26.10;52.10
1716;DHT22;855;48.824;9.220;2023-07-31T12:38:10;26.20;52.20
1716;DHT22;855;48.824;9.220;2023-07-31T12:40:38;26.10;52.20
1716;DHT22;855;48.824;9.220;2023-07-31T12:43:06;26.20;52.40
1716;DHT22;855;48.824;9.220;2023-07-31T12:45:34;26.20;52.80
1716;DHT22;855;48.824;9.220;2023-07-31T12:48:01;26.20;53.80
1716;DHT22;855;48.824;9.220;2023-07-31T12:50:28;26.40;53.60
1716;DHT22;855;48.824;9.220;2023-07-31T12:52:55;26.40;52.70
1716;DHT22;855;48.824;9.220;2023-07-31T12:55:22;26.50;53.30
1716;DHT22;855;48.824;9.220;2023-07-31T12:57:49;26.30;52.60
1716;DHT22;855;48.824;9.220;2023-07-31T13:00:16;26.30;51.90
1716;DHT22;855;48.824;9.220;2023-07-31T13:02:44;26.30;53.10
1716;DHT22;855;48.824;9.220;2023-07-31T13:05:11;26.30;52.60
1716;DHT22;855;48.824;9.220;2023-07-31T13:07:38;26.30;52.40
1716;DHT22;855;48.824;9.220;2023-07-31T13:10:06;26.20;51.60
1716;DHT22;855;48.824;9.220;2023-07-31T13:12:34;26.20;51.60
1716;DHT22;855;48.824;9.220;2023-07-31T13:15:00;26.00;51.20
1716;DHT22;855;48.824;9.220;2023-07-31T13:17:27;25.80;51.70
1716;DHT22;855;48.824;9.220;2023-07-31T13:19:55;25.60;52.40
1716;DHT22;855;48.824;9.220;2023-07-31T13:22:22;25.50;53.30
1716;DHT22;855;48.824;9.220;2023-07-31T13:24:49;25.40;53.90
1716;DHT22;855;48.824;9.220;2023-07-31T13:27:16;25.30;54.00
1716;DHT22;855;48.824;9.220;2023-07-31T13:29:45;25.30;53.20
1716;DHT22;855;48.824;9.220;2023-07-31T13:32:15;25.40;53.70
1716;DHT22;855;48.824;9.220;2023-07-31T13:34:42;25.40;54.00
1716;DHT22;855;48.824;9.220;2023-07-31T13:37:10;25.50;53.90
1716;DHT22;855;48.824;9.220;2023-07-31T13:39:37;25.60;53.60
1716;DHT22;855;48.824;9.220;2023-07-31T13:42:05;25.80;53.40
1716;DHT22;855;48.824;9.220;2023-07-31T13:44:33;26.00;53.60
1716;DHT22;855;48.824;9.220;2023-07-31T13:47:00;26.20;53.10
1716;DHT22;855;48.824;9.220;2023-07-31T13:49:27;26.30;53.10
1716;DHT22;855;48.824;9.220;2023-07-31T13:51:54;26.40;52.30
1716;DHT22;855;48.824;9.220;2023-07-31T13:54:22;26.40;54.30
1716;DHT22;855;48.824;9.220;2023-07-31T13:56:51;26.60;53.30
1716;DHT22;855;48.824;9.220;2023-07-31T13:59:18;26.70;52.60
1716;DHT22;855;48.824;9.220;2023-07-31T14:01:45;26.80;51.80
1716;DHT22;855;48.824;9.220;2023-07-31T14:04:12;26.90;51.30
1716;DHT22;855;48.824;9.220;2023-07-31T14:06:39;27.20;51.40
1716;DHT22;855;48.824;9.220;2023-07-31T14:09:06;27.20;51.40
1716;DHT22;855;48.824;9.220;2023-07-31T14:11:36;27.30;51.60
1716;DHT22;855;48.824;9.220;2023-07-31T14:14:03;27.30;51.40
1716;DHT22;855;48.824;9.220;2023-07-31T14:16:30;27.20;51.30
1716;DHT22;855;48.824;9.220;2023-07-31T14:18:57;27.10;52.10
1716;DHT22;855;48.824;9.220;2023-07-31T14:21:24;27.20;50.90
1716;DHT22;855;48.824;9.220;2023-07-31T14:23:51;27.40;52.60
1716;DHT22;855;48.824;9.220;2023-07-31T14:26:18;27.50;50.90
1716;DHT22;855;48.824;9.220;2023-07-31T14:28:46;27.60;50.20
1716;DHT22;855;48.824;9.220;2023-07-31T14:31:13;27.60;49.60
1716;DHT22;855;48.824;9.220;2023-07-31T14:33:41;27.50;50.70
1716;DHT22;855;48.824;9.220;2023-07-31T14:36:07;27.40;50.60
1716;DHT22;855;48.824;9.220;2023-07-31T14:38:34;27.50;50.70
1716;DHT22;855;48.824;9.220;2023-07-31T14:41:01;27.40;51.80
1716;DHT22;855;48.824;9.220;2023-07-31T14:43:28;27.40;52.60
1716;DHT22;855;48.824;9.220;2023-07-31T14:45:56;27.50;51.20
1716;DHT22;855;48.824;9.220;2023-07-31T14:48:25;27.70;50.70
1716;DHT22;855;48.824;9.220;2023-07-31T14:50:52;27.50;50.80
1716;DHT22;855;48.824;9.220;2023-07-31T14:53:18;27.70;51.90
1716;DHT22;855;48.824;9.220;2023-07-31T14:55:45;27.80;51.80
1716;DHT22;855;48.824;9.220;2023-07-31T14:58:12;27.90;52.20
1716;DHT22;855;48.824;9.220;2023-07-31T15:00:40;27.80;50.70
1716;DHT22;855;48.824;9.220;2023-07-31T15:03:08;27.70;50.70
1716;DHT22;855;48.824;9.220;2023-07-31T15:05:35;27.60;50.80
1716;DHT22;855;48.824;9.220;2023-07-31T15:08:04;27.50;51.80
1716;DHT22;855;48.824;9.220;2023-07-31T15:10:31;27.50;51.60
1716;DHT22;855;48.824;9.220;2023-07-31T15:12:58;27.40;50.20
1716;DHT22;855;48.824;9.220;2023-07-31T15:15:26;27.30;50.80
1716;DHT22;855;48.824;9.220;2023-07-31T15:17:53;27.40;49.70
1716;DHT22;855;48.824;9.220;2023-07-31T15:20:22;27.60;50.20
1716;DHT22;855;48.824;9.220;2023-07-31T15:22:49;27.60;51.70
1716;DHT22;855;48.824;9.220;2023-07-31T15:25:16;27.70;51.10
1716;DHT22;855;48.824;9.220;2023-07-31T15:27:43;27.90;51.30
1716;DHT22;855;48.824;9.220;2023-07-31T15:30:10;28.00;50.20
1716;DHT22;855;48.824;9.220;2023-07-31T15:32:37;28.00;50.20
1716;DHT22;855;48.824;9.220;2023-07-31T15:35:05;27.90;48.80
1716;DHT22;855;48.824;9.220;2023-07-31T15:37:34;28.00;49.10
1716;DHT22;855;48.824;9.220;2023-07-31T15:40:00;28.10;49.90
1716;DHT22;855;48.824;9.220;2023-07-31T15:42:27;28.10;48.70
1716;DHT22;855;48.824;9.220;2023-07-31T15:44:54;28.00;49.40
1716;DHT22;855;48.824;9.220;2023-07-31T15:47:21;27.90;49.30
1716;DHT22;855;48.824;9.220;2023-07-31T15:49:48;27.90;49.90
1716;DHT22;855;48.824;9.220;2023-07-31T15:52:15;27.80;49.90
1716;DHT22;855;48.824;9.220;2023-07-31T15:54:43;27.90;49.60
1716;DHT22;855;48.824;9.220;2023-07-31T15:57:09;27.80;49.30
1716;DHT22;855;48.824;9.220;2023-07-31T15:59:36;27.60;48.80
1716;DHT22;855;48.824;9.220;2023-07-31T16:02:03;27.60;49.30
1716;DHT22;855;48.824;9.220;2023-07-31T16:04:30;27.60;49.20
1716;DHT22;855;48.824;9.220;2023-07-31T16:06:57;27.60;51.20
1716;DHT22;855;48.824;9.220;2023-07-31T16:09:24;27.60;49.80
1716;DHT22;855;48.824;9.220;2023-07-31T16:11:52;27.60;51.70
1716;DHT22;855;48.824;9.220;2023-07-31T16:14:19;27.70;50.20
1716;DHT22;855;48.824;9.220;2023-07-31T16:16:46;27.60;49.40
1716;DHT22;855;48.824;9.220;2023-07-31T16:19:13;27.60;49.90
1716;DHT22;855;48.824;9.220;2023-07-31T16:21:40;27.50;50.20
1716;DHT22;855;48.824;9.220;2023-07-31T16:24:06;27.40;50.80
1716;DHT22;855;48.824;9.220;2023-07-31T16:26:33;27.40;50.90
1716;DHT22;855;48.824;9.220;2023-07-31T16:29:01;27.20;50.40
1716;DHT22;855;48.824;9.220;2023-07-31T16:31:28;26.80;51.70
1716;DHT22;855;48.824;9.220;2023-07-31T16:33:55;26.70;51.80
1716;DHT22;855;48.824;9.220;2023-07-31T16:36:23;26.50;52.20
1716;DHT22;855;48.824;9.220;2023-07-31T16:38:50;26.50;52.60
1716;DHT22;855;48.824;9.220;2023-07-31T16:41:17;26.60;52.60
1716;DHT22;855;48.824;9.220;2023-07-31T16:43:44;26.70;53.10